Time;durP1;ratioP1;P1;durP2;ratioP2;P2;SDS_P1;SDS_P2;PMS_P1;PMS_P2;Temp;Humidity;BMP_temperature;BMP_pressure;BME280_temperature;BME280_humidity;BME280_pressure;Samples;Min_cycle;Max_cycle;Signal;HPM_P1;HPM_P2
2022/04/07 00:02:05;;;;;;;11.75;6.97;;;;;;;;;;5068602;28;20089;-90
2022/04/07 00:04:31;;;;;;;14.75;7.10;;;;;;;;;;5067661;28;20040;-87
2022/04/07 00:06:57;;;;;;;12.90;7.22;;;;;;;;;;5056561;28;20107;-87
2022/04/07 00:09:24;;;;;;;13.20;7.22;;;;;;;;;;5080830;28;20043;-89
2022/04/07 00:11:50;;;;;;;11.95;6.68;;;;;;;;;;5049026;28;20123;-94
2022/04/07 00:14:16;;;;;;;10.70;6.38;;;;;;;;;;5066106;28;20033;-91
2022/04/07 00:16:44;;;;;;;14.23;6.97;;;;;;;;;;5060208;28;20063;-92
2022/04/07 00:19:13;;;;;;;11.52;7.03;;;;;;;;;;5042106;28;20036;-89
2022/04/07 00:21:41;;;;;;;12.88;6.68;;;;;;;;;;5055746;28;20047;-86
2022/04/07 00:24:08;;;;;;;11.10;6.03;;;;;;;;;;5047234;28;20041;-90
2022/04/07 00:26:35;;;;;;;13.73;6.20;;;;;;;;;;5062532;28;20041;-89
2022/04/07 00:29:01;;;;;;;9.70;5.57;;;;;;;;;;5040231;28;20127;-87
2022/04/07 00:31:28;;;;;;;11.45;5.47;;;;;;;;;;5037822;28;20036;-93
2022/04/07 00:33:54;;;;;;;11.18;5.18;;;;;;;;;;5055287;28;20404;-91
2022/04/07 00:36:20;;;;;;;9.52;4.95;;;;;;;;;;5043563;28;20052;-86
2022/04/07 00:38:46;;;;;;;12.18;5.93;;;;;;;;;;5034711;28;20063;-87
2022/04/07 00:41:12;;;;;;;13.07;5.35;;;;;;;;;;5051169;28;20046;-88
2022/04/07 00:43:39;;;;;;;16.25;5.85;;;;;;;;;;5040811;28;20040;-90
2022/04/07 00:46:05;;;;;;;12.10;5.82;;;;;;;;;;5043929;28;20049;-88
2022/04/07 00:48:35;;;;;;;12.23;6.05;;;;;;;;;;5033854;28;20313;-87
2022/04/07 00:51:02;;;;;;;10.93;5.80;;;;;;;;;;5035951;28;20083;-88
2022/04/07 00:53:29;;;;;;;12.90;6.45;;;;;;;;;;5040016;28;20048;-87
2022/04/07 00:56:00;;;;;;;12.20;6.10;;;;;;;;;;5053512;28;20032;-86
2022/04/07 00:58:27;;;;;;;11.10;5.97;;;;;;;;;;5054519;28;20032;-88
2022/04/07 01:00:54;;;;;;;12.43;6.50;;;;;;;;;;5034702;28;20071;-88
2022/04/07 01:03:20;;;;;;;11.70;6.80;;;;;;;;;;5034142;28;20037;-86
2022/04/07 01:05:46;;;;;;;10.93;5.10;;;;;;;;;;5059586;28;20132;-87
2022/04/07 01:08:12;;;;;;;9.75;4.75;;;;;;;;;;5038650;28;20087;-87
2022/04/07 01:10:38;;;;;;;9.43;4.82;;;;;;;;;;5051648;28;20091;-85
2022/04/07 01:13:05;;;;;;;7.85;3.97;;;;;;;;;;5070610;28;20139;-89
2022/04/07 01:15:31;;;;;;;10.98;4.50;;;;;;;;;;5044037;28;20516;-92
2022/04/07 01:17:58;;;;;;;8.45;3.30;;;;;;;;;;5033635;28;20045;-86
2022/04/07 01:20:24;;;;;;;9.25;4.03;;;;;;;;;;5050243;28;20237;-88
2022/04/07 01:22:51;;;;;;;10.57;3.50;;;;;;;;;;5032891;28;20125;-86
2022/04/07 01:25:18;;;;;;;8.50;3.78;;;;;;;;;;5041788;28;20036;-86
2022/04/07 01:27:48;;;;;;;10.43;4.82;;;;;;;;;;5056473;28;20040;-89
2022/04/07 01:30:15;;;;;;;10.25;4.00;;;;;;;;;;5047894;28;20040;-88
2022/04/07 01:32:46;;;;;;;10.68;4.53;;;;;;;;;;5038406;28;20095;-86
2022/04/07 01:35:13;;;;;;;10.18;5.13;;;;;;;;;;5052908;28;20133;-88
2022/04/07 01:37:41;;;;;;;10.40;5.03;;;;;;;;;;5038743;28;20459;-87
2022/04/07 01:40:09;;;;;;;12.27;5.95;;;;;;;;;;5048365;28;20040;-86
2022/04/07 01:42:36;;;;;;;11.43;5.38;;;;;;;;;;5054346;28;20097;-87
2022/04/07 01:45:04;;;;;;;13.05;6.13;;;;;;;;;;5042031;28;20044;-87
2022/04/07 01:47:32;;;;;;;14.55;6.95;;;;;;;;;;5062961;28;20044;-91
2022/04/07 01:50:05;;;;;;;14.80;7.20;;;;;;;;;;5034560;28;20036;-90
2022/04/07 01:52:32;;;;;;;13.75;7.20;;;;;;;;;;5038760;28;20032;-87
2022/04/07 01:55:00;;;;;;;15.15;7.70;;;;;;;;;;5040994;28;20032;-87
2022/04/07 01:57:26;;;;;;;14.48;7.60;;;;;;;;;;5063891;28;20130;-88
2022/04/07 01:59:53;;;;;;;13.20;8.48;;;;;;;;;;5049631;28;20047;-90
2022/04/07 02:02:21;;;;;;;13.90;7.93;;;;;;;;;;5038203;28;20075;-90
2022/04/07 02:04:54;;;;;;;15.30;8.35;;;;;;;;;;5058264;28;20078;-87
2022/04/07 02:07:32;;;;;;;18.00;8.30;;;;;;;;;;5035923;28;20053;-89
2022/04/07 02:10:05;;;;;;;15.65;7.43;;;;;;;;;;5038228;28;20063;-87
2022/04/07 02:12:37;;;;;;;15.38;7.45;;;;;;;;;;5051499;28;20037;-87
2022/04/07 02:15:05;;;;;;;15.18;7.10;;;;;;;;;;5051862;28;20033;-91
2022/04/07 02:17:31;;;;;;;16.67;7.30;;;;;;;;;;5067694;28;20044;-87
2022/04/07 02:19:58;;;;;;;15.20;7.68;;;;;;;;;;5038838;28;20045;-90
2022/04/07 02:22:28;;;;;;;18.77;8.32;;;;;;;;;;5052502;28;20040;-85
2022/04/07 02:24:54;;;;;;;13.43;6.80;;;;;;;;;;5070677;28;20500;-88
2022/04/07 02:27:20;;;;;;;16.10;7.55;;;;;;;;;;5050701;28;20147;-87
2022/04/07 02:29:47;;;;;;;20.38;8.25;;;;;;;;;;5038608;28;20129;-88
2022/04/07 02:32:13;;;;;;;20.30;7.85;;;;;;;;;;5042567;28;20036;-90
2022/04/07 02:34:40;;;;;;;13.35;7.05;;;;;;;;;;5032734;28;20029;-85
2022/04/07 02:37:08;;;;;;;17.15;7.78;;;;;;;;;;5066562;28;20044;-91
2022/04/07 02:39:35;;;;;;;19.98;7.95;;;;;;;;;;5046659;28;20528;-88
2022/04/07 02:42:07;;;;;;;16.00;7.28;;;;;;;;;;5058307;28;20048;-87
2022/04/07 02:44:33;;;;;;;18.55;8.20;;;;;;;;;;5026369;28;20110;-88
2022/04/07 02:46:59;;;;;;;17.88;7.75;;;;;;;;;;5047830;28;20033;-87
2022/04/07 02:49:26;;;;;;;18.98;7.75;;;;;;;;;;5054105;28;20039;-85
2022/04/07 02:51:52;;;;;;;15.85;8.07;;;;;;;;;;5059084;28;20041;-90
2022/04/07 02:54:18;;;;;;;18.15;7.10;;;;;;;;;;5062658;28;20043;-86
2022/04/07 02:56:44;;;;;;;13.65;6.70;;;;;;;;;;5050744;28;20512;-87
2022/04/07 02:59:10;;;;;;;21.63;7.43;;;;;;;;;;5036603;28;20051;-87
2022/04/07 03:01:37;;;;;;;15.35;6.15;;;;;;;;;;5068137;28;20090;-87
2022/04/07 03:04:03;;;;;;;15.57;6.80;;;;;;;;;;5038805;28;20574;-87
2022/04/07 03:06:29;;;;;;;15.10;6.57;;;;;;;;;;5046840;28;20135;-91
2022/04/07 03:08:55;;;;;;;14.68;6.68;;;;;;;;;;5051973;28;20045;-86
2022/04/07 03:11:21;;;;;;;16.63;6.32;;;;;;;;;;5042806;28;20134;-85
2022/04/07 03:13:48;;;;;;;15.02;6.50;;;;;;;;;;5043311;28;20070;-92
2022/04/07 03:16:14;;;;;;;13.48;6.53;;;;;;;;;;5035290;28;20111;-88
2022/04/07 03:18:40;;;;;;;14.05;6.28;;;;;;;;;;5063852;28;20530;-87
2022/04/07 03:21:06;;;;;;;16.75;7.18;;;;;;;;;;5037133;28;20416;-89
2022/04/07 03:23:33;;;;;;;16.33;7.13;;;;;;;;;;5031449;28;20041;-92
2022/04/07 03:26:01;;;;;;;16.77;6.50;;;;;;;;;;5031603;28;20059;-88
2022/04/07 03:28:27;;;;;;;18.30;6.90;;;;;;;;;;5047795;28;20091;-88
2022/04/07 03:30:53;;;;;;;17.58;7.10;;;;;;;;;;5056129;28;20035;-88
2022/04/07 03:33:19;;;;;;;18.67;7.70;;;;;;;;;;5052328;28;20044;-93
2022/04/07 03:35:46;;;;;;;18.35;7.13;;;;;;;;;;5052386;28;20075;-88
2022/04/07 03:38:12;;;;;;;14.88;6.25;;;;;;;;;;5050599;28;20570;-92
2022/04/07 03:40:38;;;;;;;18.55;6.28;;;;;;;;;;5048895;28;20128;-86
2022/04/07 03:43:10;;;;;;;15.90;6.25;;;;;;;;;;5042053;28;20483;-86
2022/04/07 03:45:40;;;;;;;14.52;5.70;;;;;;;;;;5051835;28;20145;-91
2022/04/07 03:48:07;;;;;;;17.20;5.50;;;;;;;;;;5051555;28;20235;-86
2022/04/07 03:50:34;;;;;;;12.88;4.90;;;;;;;;;;5045202;28;20069;-88
2022/04/07 03:53:00;;;;;;;16.10;5.53;;;;;;;;;;5059911;28;20044;-90
2022/04/07 03:55:26;;;;;;;13.23;5.30;;;;;;;;;;5072339;28;20563;-90
2022/04/07 03:57:54;;;;;;;12.38;4.95;;;;;;;;;;5070212;28;20556;-88
2022/04/07 04:00:21;;;;;;;13.48;4.80;;;;;;;;;;5042334;28;20461;-87
2022/04/07 04:02:48;;;;;;;13.35;4.72;;;;;;;;;;5055807;28;20036;-89
2022/04/07 04:05:14;;;;;;;13.80;4.30;;;;;;;;;;5040945;28;20056;-92
2022/04/07 04:07:40;;;;;;;13.52;4.35;;;;;;;;;;5053685;28;20068;-88
2022/04/07 04:10:07;;;;;;;14.45;4.70;;;;;;;;;;5066183;28;20041;-88
2022/04/07 04:12:33;;;;;;;16.33;5.35;;;;;;;;;;5050902;28;20072;-90
2022/04/07 04:15:01;;;;;;;15.95;5.00;;;;;;;;;;5048593;28;20032;-87
2022/04/07 04:17:29;;;;;;;18.95;5.18;;;;;;;;;;5055414;28;20040;-86
2022/04/07 04:19:55;;;;;;;16.58;5.45;;;;;;;;;;5055532;28;20561;-91
2022/04/07 04:22:21;;;;;;;19.75;6.50;;;;;;;;;;5055809;28;20127;-90
2022/04/07 04:24:48;;;;;;;13.27;5.60;;;;;;;;;;5054949;28;20079;-86
2022/04/07 04:27:14;;;;;;;16.98;6.40;;;;;;;;;;5038460;28;20484;-89
2022/04/07 04:29:41;;;;;;;16.05;6.25;;;;;;;;;;5054553;28;20032;-87
2022/04/07 04:32:07;;;;;;;14.15;6.68;;;;;;;;;;5062981;28;20033;-89
2022/04/07 04:34:34;;;;;;;22.42;6.53;;;;;;;;;;5047755;28;20052;-92
2022/04/07 04:37:00;;;;;;;17.65;6.55;;;;;;;;;;5045460;28;20037;-90
2022/04/07 04:39:30;;;;;;;22.58;6.70;;;;;;;;;;5031661;28;20052;-89
2022/04/07 04:41:56;;;;;;;21.63;6.88;;;;;;;;;;5015716;28;20037;-87
2022/04/07 04:44:25;;;;;;;19.35;6.70;;;;;;;;;;5015645;28;20049;-89
2022/04/07 04:46:51;;;;;;;19.58;7.53;;;;;;;;;;5050104;28;20493;-89
2022/04/07 04:49:17;;;;;;;23.35;8.27;;;;;;;;;;5072490;28;20397;-92
2022/04/07 04:51:43;;;;;;;25.98;8.52;;;;;;;;;;5056105;28;20071;-88
2022/04/07 04:54:11;;;;;;;21.85;7.63;;;;;;;;;;5043064;28;20041;-88
2022/04/07 04:56:44;;;;;;;24.85;8.93;;;;;;;;;;5050803;28;20044;-88
2022/04/07 04:59:10;;;;;;;25.80;8.40;;;;;;;;;;5040023;28;20124;-93
2022/04/07 05:01:36;;;;;;;16.42;6.55;;;;;;;;;;5046155;28;20036;-93
2022/04/07 05:04:04;;;;;;;18.65;5.57;;;;;;;;;;5053305;28;20136;-92
2022/04/07 05:06:30;;;;;;;17.60;3.80;;;;;;;;;;5052667;28;20048;-90
2022/04/07 05:08:57;;;;;;;14.13;3.33;;;;;;;;;;5074534;28;20062;-90
2022/04/07 05:11:23;;;;;;;11.43;3.60;;;;;;;;;;5059841;28;20036;-93
2022/04/07 05:13:52;;;;;;;13.25;4.80;;;;;;;;;;5061118;28;20074;-93
2022/04/07 05:16:19;;;;;;;20.92;5.05;;;;;;;;;;5065935;28;20037;-91
2022/04/07 05:18:47;;;;;;;20.38;6.50;;;;;;;;;;5060766;28;20044;-94
2022/04/07 05:21:16;;;;;;;21.25;7.90;;;;;;;;;;5062709;28;20056;-94
2022/04/07 05:23:43;;;;;;;27.15;8.57;;;;;;;;;;5045409;28;20171;-93
2022/04/07 05:26:09;;;;;;;29.90;8.73;;;;;;;;;;5037194;28;20501;-93
2022/04/07 05:28:36;;;;;;;30.42;9.52;;;;;;;;;;5036586;28;20040;-91
2022/04/07 05:31:02;;;;;;;28.60;8.05;;;;;;;;;;5037253;28;20044;-94
2022/04/07 05:33:28;;;;;;;20.48;5.57;;;;;;;;;;5038949;28;20124;-93
2022/04/07 05:35:55;;;;;;;17.77;5.45;;;;;;;;;;5024346;28;20041;-93
2022/04/07 05:38:21;;;;;;;17.20;5.43;;;;;;;;;;5043172;28;20041;-94
2022/04/07 05:40:48;;;;;;;21.70;5.45;;;;;;;;;;5040915;28;20041;-93
2022/04/07 05:43:14;;;;;;;13.65;4.25;;;;;;;;;;5041818;28;20256;-90
2022/04/07 05:45:42;;;;;;;18.75;2.67;;;;;;;;;;5038891;28;20040;-92
2022/04/07 05:48:08;;;;;;;7.55;1.58;;;;;;;;;;5042812;28;20045;-91
2022/04/07 05:50:34;;;;;;;9.23;1.98;;;;;;;;;;5067434;28;20037;-92
2022/04/07 05:53:01;;;;;;;7.15;1.35;;;;;;;;;;5040349;28;20040;-95
2022/04/07 05:55:27;;;;;;;5.25;1.27;;;;;;;;;;5043714;28;20503;-94
2022/04/07 05:57:54;;;;;;;5.78;1.45;;;;;;;;;;5045898;28;20055;-91
2022/04/07 06:00:23;;;;;;;8.68;2.13;;;;;;;;;;5047834;28;20025;-94
2022/04/07 06:02:51;;;;;;;5.43;1.30;;;;;;;;;;5050739;28;20100;-96
2022/04/07 06:05:20;;;;;;;7.53;1.83;;;;;;;;;;5067892;28;20053;-94
2022/04/07 06:08:15;;;;;;;6.80;1.50;;;;;;;;;;5046985;28;20056;-93
2022/04/07 06:10:45;;;;;;;10.95;1.90;;;;;;;;;;5073059;28;20044;-95
2022/04/07 06:13:14;;;;;;;9.02;1.88;;;;;;;;;;5052851;28;20045;-96
2022/04/07 06:15:44;;;;;;;8.55;1.80;;;;;;;;;;5055022;28;20059;-94
2022/04/07 06:18:13;;;;;;;11.07;2.20;;;;;;;;;;5052932;28;20124;-94
2022/04/07 06:20:39;;;;;;;10.23;2.42;;;;;;;;;;5056823;28;20036;-94
2022/04/07 06:23:06;;;;;;;12.80;2.40;;;;;;;;;;5069655;28;20499;-94
2022/04/07 06:25:34;;;;;;;11.55;2.13;;;;;;;;;;5086760;28;20036;-94
2022/04/07 06:28:02;;;;;;;11.23;2.30;;;;;;;;;;5061998;28;20041;-93
2022/04/07 06:30:32;;;;;;;11.82;2.60;;;;;;;;;;5064852;28;20476;-93
2022/04/07 06:32:58;;;;;;;9.80;1.85;;;;;;;;;;5060852;28;20046;-94
2022/04/07 06:35:24;;;;;;;7.63;1.92;;;;;;;;;;5059284;28;20044;-92
2022/04/07 06:37:53;;;;;;;7.05;1.50;;;;;;;;;;5049779;28;20040;-92
2022/04/07 06:40:29;;;;;;;5.30;1.45;;;;;;;;;;5052856;28;20048;-91
2022/04/07 06:42:56;;;;;;;6.85;1.42;;;;;;;;;;5036355;28;20066;-90
2022/04/07 06:45:23;;;;;;;6.43;1.35;;;;;;;;;;5041892;28;20045;-93
2022/04/07 06:47:51;;;;;;;5.68;1.40;;;;;;;;;;5064854;28;20036;-96
2022/04/07 06:50:28;;;;;;;6.78;1.52;;;;;;;;;;5046179;28;20067;-96
2022/04/07 06:53:05;;;;;;;6.43;1.63;;;;;;;;;;5063960;28;20044;-95
2022/04/07 06:55:34;;;;;;;7.07;1.50;;;;;;;;;;5046151;28;20055;-93
2022/04/07 06:58:06;;;;;;;6.45;1.42;;;;;;;;;;5059844;28;20048;-92
2022/04/07 07:00:43;;;;;;;5.05;1.23;;;;;;;;;;5060082;28;20274;-93
2022/04/07 07:03:10;;;;;;;3.55;0.98;;;;;;;;;;5046830;28;20091;-95
2022/04/07 07:05:37;;;;;;;5.28;1.10;;;;;;;;;;5045046;28;20037;-96
2022/04/07 07:08:14;;;;;;;4.32;1.10;;;;;;;;;;5041003;28;20045;-93
2022/04/07 07:10:40;;;;;;;6.20;1.20;;;;;;;;;;5058719;28;20161;-94
2022/04/07 07:13:07;;;;;;;3.13;1.00;;;;;;;;;;5058098;28;20041;-89
2022/04/07 07:15:33;;;;;;;2.60;1.02;;;;;;;;;;5046766;28;20037;-91
2022/04/07 07:17:59;;;;;;;4.03;1.00;;;;;;;;;;5055513;28;20037;-94
2022/04/07 07:20:25;;;;;;;4.10;0.98;;;;;;;;;;5044508;28;20041;-92
2022/04/07 07:22:52;;;;;;;5.65;1.10;;;;;;;;;;5040701;28;20037;-95
2022/04/07 07:25:18;;;;;;;6.18;1.30;;;;;;;;;;5062103;28;20053;-92
2022/04/07 07:27:45;;;;;;;2.75;0.93;;;;;;;;;;5056093;28;20045;-94
2022/04/07 07:30:12;;;;;;;6.22;0.90;;;;;;;;;;5047129;28;20489;-93
2022/04/07 07:32:39;;;;;;;6.15;1.27;;;;;;;;;;5064808;28;20064;-95
2022/04/07 07:35:06;;;;;;;4.30;1.20;;;;;;;;;;5042224;28;20128;-93
2022/04/07 07:37:32;;;;;;;2.78;0.90;;;;;;;;;;5043074;28;20040;-93
2022/04/07 07:40:08;;;;;;;5.30;1.25;;;;;;;;;;5058157;28;20100;-94
2022/04/07 07:42:36;;;;;;;3.63;1.00;;;;;;;;;;5046768;28;20071;-93
2022/04/07 07:45:02;;;;;;;2.72;1.00;;;;;;;;;;5076439;28;20085;-91
2022/04/07 07:47:29;;;;;;;3.90;1.13;;;;;;;;;;5057908;28;20040;-92
2022/04/07 07:49:55;;;;;;;2.00;0.70;;;;;;;;;;5074337;28;20040;-90
2022/04/07 07:52:21;;;;;;;3.22;1.00;;;;;;;;;;5066408;28;20037;-92
2022/04/07 07:54:47;;;;;;;3.05;0.90;;;;;;;;;;5035146;28;20037;-88
2022/04/07 07:57:13;;;;;;;5.88;0.98;;;;;;;;;;5049323;28;20045;-87
2022/04/07 07:59:40;;;;;;;4.30;0.98;;;;;;;;;;5056142;28;20087;-90
2022/04/07 08:02:06;;;;;;;5.88;1.25;;;;;;;;;;5055389;28;20041;-88
2022/04/07 08:04:32;;;;;;;6.35;1.17;;;;;;;;;;5071231;28;20045;-88
2022/04/07 08:06:58;;;;;;;5.18;1.27;;;;;;;;;;5054073;28;20523;-89
2022/04/07 08:09:24;;;;;;;3.42;0.90;;;;;;;;;;5054575;28;20040;-89
2022/04/07 08:11:50;;;;;;;3.60;0.90;;;;;;;;;;5054527;28;20032;-89
2022/04/07 08:14:16;;;;;;;4.90;1.20;;;;;;;;;;5062139;28;20496;-88
2022/04/07 08:16:45;;;;;;;5.72;1.30;;;;;;;;;;5062813;28;20044;-87
2022/04/07 08:19:11;;;;;;;6.70;1.45;;;;;;;;;;5037610;28;20041;-85
2022/04/07 08:21:37;;;;;;;5.57;1.55;;;;;;;;;;5066319;28;20562;-88
2022/04/07 08:24:04;;;;;;;5.35;1.10;;;;;;;;;;5050929;28;20037;-86
